Time;durP1;ratioP1;P1;durP2;ratioP2;P2;SDS_P1;SDS_P2;PMS_P1;PMS_P2;Temp;Humidity;BMP_temperature;BMP_pressure;BME280_temperature;BME280_humidity;BME280_pressure;Samples;Min_cycle;Max_cycle;Signal;HPM_P1;HPM_P2
2022/09/11 00:01:11;;;;;;;1.35;0.77;;;;;;;;;;4771727;30;20286;-77
2022/09/11 00:03:37;;;;;;;4.28;0.70;;;;;;;;;;4772279;30;20122;-77
2022/09/11 00:06:05;;;;;;;1.77;0.60;;;;;;;;;;4771648;30;20084;-77
2022/09/11 00:08:31;;;;;;;3.97;0.73;;;;;;;;;;4771400;30;20491;-77
2022/09/11 00:11:03;;;;;;;2.45;0.60;;;;;;;;;;4772028;30;20116;-77
2022/09/11 00:13:30;;;;;;;1.80;0.50;;;;;;;;;;4771655;30;20052;-77
2022/09/11 00:15:56;;;;;;;4.03;0.60;;;;;;;;;;4772483;30;20044;-77
2022/09/11 00:18:22;;;;;;;2.25;0.90;;;;;;;;;;4772575;30;20051;-77
2022/09/11 00:20:50;;;;;;;1.38;0.73;;;;;;;;;;4772224;30;20093;-77
2022/09/11 00:23:17;;;;;;;3.88;0.82;;;;;;;;;;4771758;30;20546;-77
2022/09/11 00:25:45;;;;;;;1.98;0.60;;;;;;;;;;4772440;30;20108;-77
2022/09/11 00:28:12;;;;;;;1.23;0.60;;;;;;;;;;4772250;30;20126;-77
2022/09/11 00:30:38;;;;;;;2.78;0.93;;;;;;;;;;4772426;30;20109;-77
2022/09/11 00:33:04;;;;;;;1.52;0.70;;;;;;;;;;4772869;30;20048;-77
2022/09/11 00:35:30;;;;;;;0.63;0.40;;;;;;;;;;4772364;30;20052;-76
2022/09/11 00:37:56;;;;;;;5.90;0.88;;;;;;;;;;4771913;30;20044;-77
2022/09/11 00:40:24;;;;;;;2.80;0.63;;;;;;;;;;4771949;30;20539;-77
2022/09/11 00:42:54;;;;;;;1.48;0.70;;;;;;;;;;4772751;30;20073;-77
2022/09/11 00:45:24;;;;;;;1.92;0.60;;;;;;;;;;4771682;30;20052;-77
2022/09/11 00:47:51;;;;;;;4.15;1.50;;;;;;;;;;4771847;30;20077;-77
2022/09/11 00:50:19;;;;;;;3.22;0.70;;;;;;;;;;4772164;30;20047;-77
2022/09/11 00:52:49;;;;;;;2.83;0.80;;;;;;;;;;4772386;30;20056;-76
2022/09/11 00:55:17;;;;;;;2.15;0.50;;;;;;;;;;4785639;30;20044;-77
2022/09/11 00:57:49;;;;;;;1.38;0.73;;;;;;;;;;4771927;30;20488;-77
2022/09/11 01:00:16;;;;;;;1.30;0.50;;;;;;;;;;4771918;30;20043;-76
2022/09/11 01:02:43;;;;;;;2.80;0.70;;;;;;;;;;4771453;30;20574;-77
2022/09/11 01:05:10;;;;;;;3.90;0.60;;;;;;;;;;4771524;30;20051;-77
2022/09/11 01:07:36;;;;;;;2.08;0.70;;;;;;;;;;4771706;30;20097;-77
2022/09/11 01:10:04;;;;;;;3.78;0.80;;;;;;;;;;4771746;30;20048;-77
2022/09/11 01:12:46;;;;;;;1.92;0.70;;;;;;;;;;4771728;30;20055;-77
2022/09/11 01:15:20;;;;;;;1.98;0.57;;;;;;;;;;4771998;30;20051;-77
2022/09/11 01:17:53;;;;;;;3.15;0.88;;;;;;;;;;4772269;30;20089;-77
2022/09/11 01:20:31;;;;;;;2.80;0.93;;;;;;;;;;4771370;30;20067;-77
2022/09/11 01:23:16;;;;;;;2.38;0.55;;;;;;;;;;4771646;30;20107;-77
2022/09/11 01:25:45;;;;;;;6.10;0.85;;;;;;;;;;4771293;30;20051;-77
2022/09/11 01:28:22;;;;;;;0.43;0.43;;;;;;;;;;4772311;30;20036;-77
2022/09/11 01:30:53;;;;;;;5.68;0.75;;;;;;;;;;4771277;30;20055;-77
2022/09/11 01:33:38;;;;;;;3.05;0.68;;;;;;;;;;4770981;30;20508;-77
2022/09/11 01:36:09;;;;;;;4.75;0.60;;;;;;;;;;4771339;30;20052;-77
2022/09/11 01:38:38;;;;;;;1.85;0.60;;;;;;;;;;4771832;30;20484;-77
2022/09/11 01:41:22;;;;;;;3.80;0.80;;;;;;;;;;4771352;30;20047;-77
2022/09/11 01:43:55;;;;;;;4.85;0.80;;;;;;;;;;4770974;30;20048;-77
2022/09/11 01:46:22;;;;;;;3.17;0.80;;;;;;;;;;4771617;30;20074;-77
2022/09/11 01:48:52;;;;;;;4.05;0.80;;;;;;;;;;4771371;30;20081;-77
2022/09/11 01:51:24;;;;;;;2.10;0.70;;;;;;;;;;4771392;30;20094;-77
2022/09/11 01:53:51;;;;;;;1.55;0.50;;;;;;;;;;4771832;30;20117;-77
2022/09/11 01:56:22;;;;;;;4.30;1.02;;;;;;;;;;4771526;30;20071;-76
2022/09/11 01:58:51;;;;;;;1.17;0.77;;;;;;;;;;4771572;30;20048;-76
2022/09/11 02:01:20;;;;;;;1.80;0.80;;;;;;;;;;4771585;30;20052;-77
2022/09/11 02:03:50;;;;;;;3.35;0.70;;;;;;;;;;4771259;30;20055;-77
2022/09/11 02:06:25;;;;;;;3.47;0.70;;;;;;;;;;4771254;30;20044;-76
2022/09/11 02:08:58;;;;;;;0.35;0.30;;;;;;;;;;4771216;30;20575;-77
2022/09/11 02:11:24;;;;;;;1.90;0.63;;;;;;;;;;4770592;30;20104;-76
2022/09/11 02:14:09;;;;;;;1.48;0.63;;;;;;;;;;4770917;30;20415;-77
2022/09/11 02:16:38;;;;;;;1.60;0.70;;;;;;;;;;4771452;30;20047;-77
2022/09/11 02:19:05;;;;;;;3.65;0.75;;;;;;;;;;4770846;30;20048;-77
2022/09/11 02:21:32;;;;;;;1.00;0.60;;;;;;;;;;4771482;30;20136;-77
2022/09/11 02:23:59;;;;;;;2.63;0.55;;;;;;;;;;4770544;30;20389;-77
2022/09/11 02:26:27;;;;;;;2.67;0.70;;;;;;;;;;4770757;30;20040;-77
2022/09/11 02:28:53;;;;;;;3.83;0.70;;;;;;;;;;4771300;30;20050;-77
2022/09/11 02:31:20;;;;;;;2.97;0.93;;;;;;;;;;4771300;30;20127;-77
2022/09/11 02:33:46;;;;;;;2.33;0.77;;;;;;;;;;4771034;30;20062;-77
2022/09/11 02:36:18;;;;;;;1.30;0.70;;;;;;;;;;4772086;30;20048;-77
2022/09/11 02:38:57;;;;;;;2.70;0.75;;;;;;;;;;4774279;30;20135;-76
2022/09/11 02:41:36;;;;;;;1.15;0.50;;;;;;;;;;4774312;30;20051;-77
2022/09/11 02:44:20;;;;;;;1.83;0.77;;;;;;;;;;4773545;30;20054;-77
2022/09/11 02:47:13;;;;;;;5.25;0.60;;;;;;;;;;4774162;30;20063;-77
2022/09/11 02:49:45;;;;;;;1.50;1.00;;;;;;;;;;4772956;30;20083;-76
2022/09/11 02:52:19;;;;;;;5.78;0.88;;;;;;;;;;4774037;30;20052;-77
2022/09/11 02:54:56;;;;;;;1.73;0.70;;;;;;;;;;4774104;30;20052;-77
2022/09/11 02:57:30;;;;;;;1.13;0.73;;;;;;;;;;4774582;30;20133;-77
2022/09/11 03:00:01;;;;;;;2.05;0.75;;;;;;;;;;4773887;30;20063;-77
2022/09/11 03:02:31;;;;;;;1.40;0.60;;;;;;;;;;4774696;30;20048;-76
2022/09/11 03:04:57;;;;;;;2.83;0.80;;;;;;;;;;4774136;30;20126;-77
2022/09/11 03:07:24;;;;;;;2.90;1.00;;;;;;;;;;4773766;30;20496;-77
2022/09/11 03:09:50;;;;;;;2.75;0.90;;;;;;;;;;4774055;30;20565;-76
2022/09/11 03:12:17;;;;;;;3.33;0.80;;;;;;;;;;4773657;30;20543;-77
2022/09/11 03:14:43;;;;;;;4.15;0.70;;;;;;;;;;4773716;30;20048;-77
2022/09/11 03:17:09;;;;;;;2.10;0.88;;;;;;;;;;4773921;30;20585;-77
2022/09/11 03:19:35;;;;;;;2.17;0.60;;;;;;;;;;4773608;30;20493;-76
2022/09/11 03:22:02;;;;;;;1.38;0.60;;;;;;;;;;4773893;30;20055;-76
2022/09/11 03:24:28;;;;;;;1.75;0.70;;;;;;;;;;4773715;30;20044;-77
2022/09/11 03:26:54;;;;;;;1.75;0.55;;;;;;;;;;4773723;30;20044;-77
2022/09/11 03:29:20;;;;;;;1.23;0.60;;;;;;;;;;4773724;30;20044;-76
2022/09/11 03:31:47;;;;;;;2.67;0.73;;;;;;;;;;4772998;30;20075;-76
2022/09/11 03:34:13;;;;;;;2.00;0.65;;;;;;;;;;4772340;30;20051;-76
2022/09/11 03:36:39;;;;;;;4.00;0.85;;;;;;;;;;4772258;30;20048;-77
2022/09/11 03:39:06;;;;;;;3.67;0.88;;;;;;;;;;4772816;30;20048;-76
2022/09/11 03:41:32;;;;;;;1.63;0.80;;;;;;;;;;4772591;30;20416;-76
2022/09/11 03:43:58;;;;;;;1.33;0.60;;;;;;;;;;4773474;30;20044;-76
2022/09/11 03:46:24;;;;;;;2.80;0.80;;;;;;;;;;4773400;30;20527;-76
2022/09/11 03:48:52;;;;;;;3.72;0.98;;;;;;;;;;4771604;30;20078;-77
2022/09/11 03:51:18;;;;;;;1.20;0.63;;;;;;;;;;4771602;30;20064;-76
2022/09/11 03:53:44;;;;;;;1.05;0.63;;;;;;;;;;4773033;30;20051;-77
2022/09/11 03:56:11;;;;;;;3.38;0.80;;;;;;;;;;4772359;30;20100;-76
2022/09/11 03:58:37;;;;;;;2.25;0.95;;;;;;;;;;4754990;30;20048;-77
2022/09/11 04:01:13;;;;;;;3.33;0.80;;;;;;;;;;4760986;30;20511;-77
2022/09/11 04:03:40;;;;;;;2.35;0.90;;;;;;;;;;4772699;30;20047;-76
2022/09/11 04:06:07;;;;;;;1.52;0.70;;;;;;;;;;4772817;30;20040;-76
2022/09/11 04:08:33;;;;;;;2.53;0.90;;;;;;;;;;4772216;30;20133;-75
2022/09/11 04:11:01;;;;;;;2.45;0.90;;;;;;;;;;4771809;30;20044;-71
2022/09/11 04:13:31;;;;;;;1.65;0.60;;;;;;;;;;4771851;30;20138;-76
2022/09/11 04:16:01;;;;;;;0.77;0.65;;;;;;;;;;4771756;30;20035;-77
2022/09/11 04:18:28;;;;;;;4.78;0.93;;;;;;;;;;4772685;30;20050;-76
2022/09/11 04:20:54;;;;;;;4.20;0.80;;;;;;;;;;4772574;30;20102;-76
2022/09/11 04:23:21;;;;;;;2.90;0.60;;;;;;;;;;4772470;30;20058;-77
2022/09/11 04:25:47;;;;;;;2.22;0.60;;;;;;;;;;4772047;30;20680;-76
2022/09/11 04:28:13;;;;;;;2.13;0.82;;;;;;;;;;4772002;30;20048;-76
2022/09/11 04:30:41;;;;;;;2.95;0.88;;;;;;;;;;4772422;30;20055;-77
2022/09/11 04:33:07;;;;;;;2.45;0.73;;;;;;;;;;4772630;30;20087;-77
2022/09/11 04:35:37;;;;;;;2.40;0.88;;;;;;;;;;4772377;30;20052;-76
2022/09/11 04:38:03;;;;;;;1.13;0.63;;;;;;;;;;4771904;30;20047;-76
2022/09/11 04:40:30;;;;;;;3.38;0.90;;;;;;;;;;4771924;30;20051;-76
2022/09/11 04:42:56;;;;;;;2.60;0.60;;;;;;;;;;4772240;30;20131;-77
2022/09/11 04:45:22;;;;;;;1.92;0.80;;;;;;;;;;4772468;30;20060;-76
2022/09/11 04:47:50;;;;;;;4.03;0.77;;;;;;;;;;4772016;30;20044;-76
2022/09/11 04:50:16;;;;;;;2.08;0.80;;;;;;;;;;4772298;30;20070;-76
2022/09/11 04:52:44;;;;;;;1.67;0.65;;;;;;;;;;4771796;30;20052;-76
2022/09/11 04:55:10;;;;;;;2.47;0.70;;;;;;;;;;4772000;30;20058;-76
2022/09/11 04:57:37;;;;;;;3.35;1.00;;;;;;;;;;4772440;30;20097;-76
2022/09/11 05:00:05;;;;;;;2.00;0.80;;;;;;;;;;4771620;30;20058;-76
2022/09/11 05:02:31;;;;;;;2.65;0.80;;;;;;;;;;4772686;30;20079;-76
2022/09/11 05:04:58;;;;;;;4.32;1.05;;;;;;;;;;4772047;30;20075;-76
2022/09/11 05:07:24;;;;;;;3.65;0.75;;;;;;;;;;4771742;30;20071;-76
2022/09/11 05:09:53;;;;;;;1.55;0.60;;;;;;;;;;4772047;30;20082;-76
2022/09/11 05:12:20;;;;;;;2.13;0.75;;;;;;;;;;4771667;30;20047;-76
2022/09/11 05:14:46;;;;;;;3.17;0.88;;;;;;;;;;4772026;30;20055;-76
2022/09/11 05:17:12;;;;;;;3.35;0.93;;;;;;;;;;4771991;30;20046;-76
2022/09/11 05:19:39;;;;;;;3.15;0.82;;;;;;;;;;4771788;30;20051;-76
2022/09/11 05:22:05;;;;;;;2.63;0.90;;;;;;;;;;4771719;30;20573;-77
2022/09/11 05:24:31;;;;;;;2.78;0.77;;;;;;;;;;4771582;30;20451;-76
2022/09/11 05:26:58;;;;;;;2.20;0.90;;;;;;;;;;4771888;30;20055;-76
2022/09/11 05:29:28;;;;;;;3.97;0.80;;;;;;;;;;4771809;30;20056;-76
2022/09/11 05:31:57;;;;;;;2.70;0.53;;;;;;;;;;4771317;30;20446;-76
2022/09/11 05:34:24;;;;;;;3.70;0.80;;;;;;;;;;4771994;30;20048;-76
2022/09/11 05:36:51;;;;;;;2.15;0.90;;;;;;;;;;4771353;30;20055;-76
2022/09/11 05:39:17;;;;;;;1.95;0.52;;;;;;;;;;4771687;30;20511;-76
2022/09/11 05:41:43;;;;;;;3.95;0.80;;;;;;;;;;4772329;30;20144;-76
2022/09/11 05:44:09;;;;;;;2.63;0.57;;;;;;;;;;4771204;30;20531;-77
2022/09/11 05:46:35;;;;;;;1.65;0.65;;;;;;;;;;4771883;30;20043;-76
2022/09/11 05:49:01;;;;;;;0.82;0.60;;;;;;;;;;4772120;30;20104;-76
2022/09/11 05:51:28;;;;;;;1.95;0.85;;;;;;;;;;4771774;30;20067;-76
2022/09/11 05:53:55;;;;;;;0.93;0.60;;;;;;;;;;4771407;30;20047;-76
2022/09/11 05:56:22;;;;;;;1.20;0.90;;;;;;;;;;4771637;30;20126;-76
2022/09/11 05:58:52;;;;;;;2.22;0.93;;;;;;;;;;4771330;30;20051;-77
2022/09/11 06:01:19;;;;;;;2.55;0.82;;;;;;;;;;4772269;30;20044;-76
2022/09/11 06:03:48;;;;;;;2.85;1.00;;;;;;;;;;4771589;30;20048;-76
2022/09/11 06:06:14;;;;;;;3.33;1.00;;;;;;;;;;4771859;30;20040;-76
2022/09/11 06:08:44;;;;;;;1.70;0.80;;;;;;;;;;4772059;30;20047;-76
2022/09/11 06:11:12;;;;;;;4.57;1.00;;;;;;;;;;4772455;30;20077;-76
2022/09/11 06:13:39;;;;;;;1.73;0.63;;;;;;;;;;4774881;30;20052;-76
2022/09/11 06:16:09;;;;;;;3.58;0.73;;;;;;;;;;4774624;30;20051;-76
2022/09/11 06:18:35;;;;;;;1.40;0.50;;;;;;;;;;4774978;30;20042;-76
2022/09/11 06:21:03;;;;;;;3.20;0.70;;;;;;;;;;4774836;30;20043;-75
2022/09/11 06:23:29;;;;;;;4.40;0.85;;;;;;;;;;4774489;30;20055;-76
2022/09/11 06:26:02;;;;;;;1.25;0.80;;;;;;;;;;4772968;30;20435;-76
2022/09/11 06:28:28;;;;;;;5.88;1.25;;;;;;;;;;4774296;30;20059;-76
2022/09/11 06:30:54;;;;;;;2.67;0.90;;;;;;;;;;4774089;30;20449;-76
2022/09/11 06:33:20;;;;;;;2.17;1.00;;;;;;;;;;4774887;30;20095;-76
2022/09/11 06:36:00;;;;;;;3.22;1.13;;;;;;;;;;4774246;30;20048;-76
2022/09/11 06:38:26;;;;;;;8.90;1.23;;;;;;;;;;4774127;30;20108;-76
2022/09/11 06:40:53;;;;;;;4.85;0.82;;;;;;;;;;4774231;30;20508;-76
2022/09/11 06:43:19;;;;;;;2.45;0.77;;;;;;;;;;4774219;30;20056;-76
2022/09/11 06:45:47;;;;;;;2.85;0.85;;;;;;;;;;4774130;30;20056;-76
2022/09/11 06:48:14;;;;;;;2.72;0.63;;;;;;;;;;4773981;30;20039;-77
2022/09/11 06:50:40;;;;;;;3.45;1.00;;;;;;;;;;4773964;30;20043;-76
2022/09/11 06:53:07;;;;;;;2.28;1.00;;;;;;;;;;4773931;30;20135;-76
2022/09/11 06:55:33;;;;;;;2.90;0.70;;;;;;;;;;4773978;30;20055;-76
2022/09/11 06:58:01;;;;;;;2.08;0.98;;;;;;;;;;4773848;30;20519;-77
2022/09/11 07:00:27;;;;;;;5.85;3.33;;;;;;;;;;4774065;30;20071;-76
2022/09/11 07:02:54;;;;;;;5.78;3.17;;;;;;;;;;4774381;30;20130;-79
2022/09/11 07:05:21;;;;;;;1.92;0.98;;;;;;;;;;4773403;30;20048;-80
2022/09/11 07:07:49;;;;;;;1.58;0.75;;;;;;;;;;4772999;30;20389;-79
2022/09/11 07:10:15;;;;;;;6.40;1.08;;;;;;;;;;4772763;30;20044;-80
2022/09/11 07:12:41;;;;;;;4.00;1.10;;;;;;;;;;4773153;30;20097;-80
2022/09/11 07:15:08;;;;;;;4.63;1.10;;;;;;;;;;4773055;30;20051;-79
2022/09/11 07:17:35;;;;;;;3.75;0.80;;;;;;;;;;4772781;30;20137;-80
2022/09/11 07:20:02;;;;;;;4.80;0.98;;;;;;;;;;4772924;30;20070;-80
2022/09/11 07:22:29;;;;;;;2.33;0.98;;;;;;;;;;4772750;30;20071;-78
2022/09/11 07:24:56;;;;;;;3.25;0.98;;;;;;;;;;4773175;30;20508;-78
2022/09/11 07:27:22;;;;;;;2.28;0.88;;;;;;;;;;4772822;30;20109;-79
2022/09/11 07:29:48;;;;;;;1.83;0.80;;;;;;;;;;4772706;30;20447;-79
2022/09/11 07:32:14;;;;;;;3.38;1.08;;;;;;;;;;4772842;30;20126;-79
2022/09/11 07:34:40;;;;;;;2.63;0.88;;;;;;;;;;4772720;30;20055;-78
2022/09/11 07:37:06;;;;;;;4.20;1.10;;;;;;;;;;4772485;30;20504;-81
2022/09/11 07:39:33;;;;;;;2.88;0.95;;;;;;;;;;4772956;30;20040;-78
2022/09/11 07:41:59;;;;;;;1.92;0.88;;;;;;;;;;4772691;30;20536;-80
2022/09/11 07:44:25;;;;;;;2.88;0.80;;;;;;;;;;4772559;30;20143;-78
2022/09/11 07:46:51;;;;;;;4.00;2.38;;;;;;;;;;4770324;30;20081;-81
2022/09/11 07:49:18;;;;;;;11.30;7.57;;;;;;;;;;4772021;30;20155;-80
2022/09/11 07:51:45;;;;;;;6.60;2.78;;;;;;;;;;4771826;30;20062;-80
2022/09/11 07:54:11;;;;;;;3.08;1.05;;;;;;;;;;4772105;30;20054;-80
2022/09/11 07:56:37;;;;;;;4.47;0.98;;;;;;;;;;4772124;30;20055;-80
2022/09/11 07:59:06;;;;;;;2.03;0.80;;;;;;;;;;4772394;30;20051;-80
2022/09/11 08:01:32;;;;;;;1.55;0.57;;;;;;;;;;4772002;30;20055;-79
2022/09/11 08:04:01;;;;;;;2.65;0.88;;;;;;;;;;4772143;30;20136;-80
2022/09/11 08:06:28;;;;;;;0.82;0.70;;;;;;;;;;4772081;30;20079;-80
2022/09/11 08:08:56;;;;;;;3.00;1.25;;;;;;;;;;4769852;30;20538;-80
2022/09/11 08:11:22;;;;;;;4.63;0.93;;;;;;;;;;4771794;30;20423;-80
2022/09/11 08:13:52;;;;;;;2.55;0.90;;;;;;;;;;4772104;30;20052;-79
2022/09/11 08:16:19;;;;;;;3.25;0.80;;;;;;;;;;4772706;30;20050;-81
2022/09/11 08:18:47;;;;;;;4.85;1.17;;;;;;;;;;4772631;30;20047;-80
2022/09/11 08:21:13;;;;;;;1.20;0.70;;;;;;;;;;4772750;30;20044;-80
2022/09/11 08:23:41;;;;;;;2.08;0.88;;;;;;;;;;4772503;30;20051;-79
2022/09/11 08:26:08;;;;;;;4.28;0.75;;;;;;;;;;4772537;30;20048;-80
2022/09/11 08:28:35;;;;;;;1.75;0.80;;;;;;;;;;4772496;30;20044;-80
2022/09/11 08:31:02;;;;;;;2.00;0.80;;;;;;;;;;4772052;30;20036;-82
2022/09/11 08:33:29;;;;;;;1.95;0.60;;;;;;;;;;4769834;30;20056;-80
2022/09/11 08:35:56;;;;;;;3.67;0.82;;;;;;;;;;4771378;30;20047;-80
2022/09/11 08:38:23;;;;;;;1.90;0.73;;;;;;;;;;4769161;30;20113;-80
2022/09/11 08:40:50;;;;;;;2.00;0.60;;;;;;;;;;4771606;30;20047;-80
2022/09/11 08:43:37;;;;;;;3.58;0.73;;;;;;;;;;4771602;30;20055;-77
2022/09/11 08:46:08;;;;;;;1.67;0.50;;;;;;;;;;4770332;30;20420;-80
2022/09/11 08:48:46;;;;;;;2.45;0.80;;;;;;;;;;4772132;30;20134;-80
2022/09/11 08:51:14;;;;;;;2.20;0.85;;;;;;;;;;4770517;30;20132;-80
2022/09/11 08:53:40;;;;;;;2.42;0.60;;;;;;;;;;4770778;30;20050;-81
2022/09/11 08:56:09;;;;;;;2.38;0.70;;;;;;;;;;4770766;30;20042;-79
2022/09/11 08:58:53;;;;;;;3.85;0.60;;;;;;;;;;4772521;30;20051;-81
2022/09/11 09:01:36;;;;;;;1.27;0.60;;;;;;;;;;4771714;30;20039;-81
2022/09/11 09:04:20;;;;;;;1.83;0.60;;;;;;;;;;4772099;30;20094;-78
2022/09/11 09:06:49;;;;;;;3.38;0.80;;;;;;;;;;4770632;30;20039;-80
2022/09/11 09:09:25;;;;;;;6.50;1.00;;;;;;;;;;4769914;30;20138;-78
2022/09/11 09:11:52;;;;;;;1.63;0.70;;;;;;;;;;4771034;30;20589;-78
2022/09/11 09:14:28;;;;;;;2.60;0.70;;;;;;;;;;4771107;30;20063;-77
2022/09/11 09:17:00;;;;;;;4.20;0.52;;;;;;;;;;4771008;30;20039;-79
2022/09/11 09:19:33;;;;;;;3.03;0.77;;;;;;;;;;4770721;30;20112;-77
2022/09/11 09:21:59;;;;;;;1.95;0.65;;;;;;;;;;4768712;30;20052;-77
2022/09/11 09:24:27;;;;;;;1.35;0.63;;;;;;;;;;4770965;30;20108;-77
2022/09/11 09:26:58;;;;;;;2.13;0.57;;;;;;;;;;4770617;30;20043;-77
2022/09/11 09:29:27;;;;;;;2.55;0.52;;;;;;;;;;4770715;30;20116;-76
2022/09/11 09:31:57;;;;;;;1.90;0.40;;;;;;;;;;4770847;30;20059;-77
2022/09/11 09:34:26;;;;;;;3.13;0.68;;;;;;;;;;4770689;30;20052;-77
2022/09/11 09:37:00;;;;;;;1.60;0.50;;;;;;;;;;4770613;30;20387;-74
2022/09/11 09:39:26;;;;;;;1.50;0.52;;;;;;;;;;4770992;30;20462;-77
2022/09/11 09:41:53;;;;;;;1.98;0.40;;;;;;;;;;4771594;30;20058;-74
2022/09/11 09:44:26;;;;;;;2.42;0.63;;;;;;;;;;4771281;30;20056;-78
2022/09/11 09:46:54;;;;;;;4.25;0.95;;;;;;;;;;4775104;30;20404;-77
2022/09/11 09:49:24;;;;;;;2.00;0.60;;;;;;;;;;4775045;30;20127;-77
2022/09/11 09:51:50;;;;;;;1.02;0.45;;;;;;;;;;4774876;30;20060;-78
2022/09/11 09:54:19;;;;;;;1.98;0.70;;;;;;;;;;4775046;30;20048;-78
2022/09/11 09:56:58;;;;;;;2.28;0.50;;;;;;;;;;4773014;30;20131;-79
2022/09/11 09:59:49;;;;;;;2.25;0.65;;;;;;;;;;4774485;30;20051;-77
2022/09/11 10:02:35;;;;;;;2.22;0.60;;;;;;;;;;4774119;30;20059;-75
2022/09/11 10:05:16;;;;;;;3.42;0.60;;;;;;;;;;4774059;30;20538;-76
2022/09/11 10:07:50;;;;;;;2.35;0.40;;;;;;;;;;4770321;30;20411;-75
2022/09/11 10:10:22;;;;;;;0.75;0.50;;;;;;;;;;4756797;30;20094;-74
2022/09/11 10:12:49;;;;;;;1.40;0.50;;;;;;;;;;4757001;30;20117;-76
2022/09/11 10:15:21;;;;;;;1.95;0.50;;;;;;;;;;4768807;30;20093;-76
2022/09/11 10:17:47;;;;;;;1.73;0.75;;;;;;;;;;4773562;30;20039;-75
2022/09/11 10:20:24;;;;;;;1.50;0.60;;;;;;;;;;4773237;30;20039;-78
2022/09/11 10:22:51;;;;;;;1.65;0.70;;;;;;;;;;4772843;30;20098;-79
2022/09/11 10:25:21;;;;;;;1.40;0.50;;;;;;;;;;4773365;30;20051;-78
2022/09/11 10:27:54;;;;;;;2.03;0.50;;;;;;;;;;4772517;30;20118;-77
2022/09/11 10:30:40;;;;;;;2.88;0.73;;;;;;;;;;4783359;30;20039;-75
2022/09/11 10:33:25;;;;;;;2.25;0.70;;;;;;;;;;4773101;30;20067;-75
2022/09/11 10:35:54;;;;;;;1.98;0.57;;;;;;;;;;4770527;30;20138;-75
2022/09/11 10:38:20;;;;;;;3.40;0.82;;;;;;;;;;4773058;30;20585;-75
2022/09/11 10:41:02;;;;;;;2.47;0.70;;;;;;;;;;4773308;30;20051;-75
2022/09/11 10:43:40;;;;;;;1.65;0.50;;;;;;;;;;4772429;30;20067;-73
2022/09/11 10:46:27;;;;;;;1.45;0.57;;;;;;;;;;4772631;30;20059;-74
2022/09/11 10:49:03;;;;;;;1.17;0.50;;;;;;;;;;4772676;29;20051;-75
2022/09/11 10:51:30;;;;;;;1.15;0.80;;;;;;;;;;4755967;30;20055;-74
2022/09/11 10:53:56;;;;;;;1.45;0.40;;;;;;;;;;4755227;30;20040;-74
2022/09/11 10:56:23;;;;;;;1.77;0.52;;;;;;;;;;4754687;30;20048;-74
2022/09/11 10:58:52;;;;;;;2.45;1.20;;;;;;;;;;4754912;30;20036;-74
2022/09/11 11:01:18;;;;;;;1.80;0.60;;;;;;;;;;4755222;30;20055;-74
2022/09/11 11:03:45;;;;;;;2.30;0.82;;;;;;;;;;4755080;30;20101;-74
2022/09/11 11:06:31;;;;;;;2.78;0.80;;;;;;;;;;4754902;30;20044;-75
2022/09/11 11:09:01;;;;;;;2.78;0.88;;;;;;;;;;4763747;30;20054;-75
2022/09/11 11:11:31;;;;;;;1.55;0.60;;;;;;;;;;4771884;30;20128;-77
2022/09/11 11:14:06;;;;;;;2.05;0.68;;;;;;;;;;4772804;30;20458;-76
2022/09/11 11:16:46;;;;;;;2.83;0.50;;;;;;;;;;4773225;30;20039;-77
2022/09/11 11:19:27;;;;;;;2.78;0.75;;;;;;;;;;4771732;30;20108;-78
2022/09/11 11:22:07;;;;;;;1.83;0.70;;;;;;;;;;4770176;30;20113;-79
2022/09/11 11:24:42;;;;;;;1.83;0.80;;;;;;;;;;4771631;30;20060;-74
2022/09/11 11:27:08;;;;;;;5.05;0.70;;;;;;;;;;4772528;30;20531;-81
2022/09/11 11:29:37;;;;;;;3.30;0.98;;;;;;;;;;4773522;30;20032;-76
2022/09/11 11:32:09;;;;;;;3.25;0.70;;;;;;;;;;4772038;30;20401;-75
2022/09/11 11:34:36;;;;;;;2.17;0.60;;;;;;;;;;4772522;30;20075;-78
2022/09/11 11:37:02;;;;;;;2.50;0.63;;;;;;;;;;4771666;30;20175;-79
2022/09/11 11:39:32;;;;;;;3.47;0.80;;;;;;;;;;4772152;30;20059;-79
2022/09/11 11:42:16;;;;;;;2.28;0.70;;;;;;;;;;4771029;30;20051;-78
2022/09/11 11:44:47;;;;;;;1.50;0.90;;;;;;;;;;4770846;30;20503;-75
2022/09/11 11:47:14;;;;;;;2.22;0.60;;;;;;;;;;4772535;30;20047;-74
2022/09/11 11:50:07;;;;;;;4.07;0.88;;;;;;;;;;4772870;30;20051;-79
2022/09/11 11:52:52;;;;;;;1.02;0.65;;;;;;;;;;4772427;30;20055;-81
2022/09/11 11:55:20;;;;;;;3.97;0.50;;;;;;;;;;4772122;30;20093;-76
2022/09/11 11:58:05;;;;;;;3.75;1.30;;;;;;;;;;4772740;30;20043;-77
2022/09/11 12:00:37;;;;;;;3.53;1.15;;;;;;;;;;4773081;30;20099;-79
2022/09/11 12:03:13;;;;;;;2.85;1.80;;;;;;;;;;4771329;30;20496;-81
2022/09/11 12:05:39;;;;;;;1.15;0.73;;;;;;;;;;4771348;29;20060;-81
2022/09/11 12:08:10;;;;;;;1.92;1.00;;;;;;;;;;4771997;30;20048;-81
2022/09/11 12:10:38;;;;;;;1.98;1.00;;;;;;;;;;4770762;30;20078;-81
2022/09/11 12:13:11;;;;;;;2.35;1.00;;;;;;;;;;4771574;30;20060;-77
2022/09/11 12:15:38;;;;;;;2.15;0.88;;;;;;;;;;4773096;30;20054;-77
2022/09/11 12:18:04;;;;;;;3.80;0.90;;;;;;;;;;4772388;30;20043;-82
2022/09/11 12:20:33;;;;;;;1.67;0.70;;;;;;;;;;4767296;30;20114;-80
2022/09/11 12:23:00;;;;;;;5.43;0.60;;;;;;;;;;4769198;30;20043;-82
2022/09/11 12:25:48;;;;;;;2.63;0.77;;;;;;;;;;4770793;30;20070;-80
2022/09/11 12:28:22;;;;;;;2.47;0.80;;;;;;;;;;4770248;30;20058;-79
2022/09/11 12:30:56;;;;;;;2.38;0.90;;;;;;;;;;4768843;30;20105;-80
2022/09/11 12:33:55;;;;;;;6.97;4.93;;;;;;;;;;4757382;30;20063;-81
2022/09/11 12:36:24;;;;;;;18.20;13.88;;;;;;;;;;4787037;29;20043;-83
2022/09/11 12:38:56;;;;;;;7.65;4.38;;;;;;;;;;4770710;30;20142;-82
2022/09/11 12:41:33;;;;;;;8.25;6.72;;;;;;;;;;4771326;30;20466;-80
2022/09/11 12:43:59;;;;;;;8.00;6.43;;;;;;;;;;4771052;30;20049;-83
2022/09/11 12:46:26;;;;;;;8.65;3.95;;;;;;;;;;4772744;30;20118;-82
2022/09/11 12:48:57;;;;;;;4.53;2.45;;;;;;;;;;4772147;30;20512;-84
2022/09/11 12:51:23;;;;;;;;;;;;;;;;;;4772034;30;20142;-80
2022/09/11 12:53:52;;;;;;;4.13;1.73;;;;;;;;;;4764137;30;20349;-77
2022/09/11 12:56:22;;;;;;;2.58;1.00;;;;;;;;;;4771399;30;20122;-77
2022/09/11 12:58:48;;;;;;;;;;;;;;;;;;4771682;30;20113;-76
2022/09/11 13:04:23;;;;;;;2.05;0.90;;;;;;;;;;4768357;29;20068;-80
2022/09/11 13:06:55;;;;;;;2.47;0.70;;;;;;;;;;4767726;30;20040;-81
2022/09/11 13:09:24;;;;;;;2.53;0.90;;;;;;;;;;4768652;30;20048;-80
2022/09/11 13:11:52;;;;;;;3.13;1.20;;;;;;;;;;4770642;30;20054;-81
2022/09/11 13:14:27;;;;;;;2.22;0.70;;;;;;;;;;4774512;30;20147;-81
2022/09/11 13:16:54;;;;;;;3.47;1.27;;;;;;;;;;4782756;30;20067;-84
2022/09/11 13:19:21;;;;;;;2.17;1.00;;;;;;;;;;4771614;30;20132;-81
2022/09/11 13:21:50;;;;;;;2.53;1.00;;;;;;;;;;4774662;30;20503;-81
2022/09/11 13:24:30;;;;;;;2.30;1.48;;;;;;;;;;4802051;29;20051;-79
2022/09/11 13:26:59;;;;;;;3.45;1.23;;;;;;;;;;4788775;30;20035;-79
2022/09/11 13:29:28;;;;;;;1.80;1.30;;;;;;;;;;4780666;30;20055;-77
2022/09/11 13:31:56;;;;;;;3.00;1.05;;;;;;;;;;4771232;30;20058;-78
2022/09/11 13:34:24;;;;;;;3.53;0.90;;;;;;;;;;4780316;30;20079;-80
2022/09/11 13:36:50;;;;;;;3.30;0.88;;;;;;;;;;4784030;30;20044;-82
2022/09/11 13:39:18;;;;;;;2.67;0.90;;;;;;;;;;4770039;30;20074;-80
2022/09/11 13:41:45;;;;;;;6.18;0.70;;;;;;;;;;4770988;30;20503;-79
2022/09/11 13:44:26;;;;;;;1.52;0.57;;;;;;;;;;4770302;30;20117;-80
2022/09/11 13:46:53;;;;;;;3.05;0.90;;;;;;;;;;4752903;30;20066;-79
2022/09/11 13:49:30;;;;;;;3.80;0.70;;;;;;;;;;4752285;30;20105;-80
2022/09/11 13:51:57;;;;;;;2.47;0.70;;;;;;;;;;4770869;30;20055;-74
2022/09/11 13:54:29;;;;;;;2.45;0.65;;;;;;;;;;4769308;30;20105;-83
2022/09/11 13:56:55;;;;;;;3.75;0.82;;;;;;;;;;4770058;30;20098;-79
2022/09/11 13:59:41;;;;;;;1.25;0.63;;;;;;;;;;4769428;30;20055;-77
2022/09/11 14:02:23;;;;;;;3.30;0.60;;;;;;;;;;4769601;30;20051;-80
2022/09/11 14:04:51;;;;;;;2.05;0.60;;;;;;;;;;4769754;30;20066;-82
2022/09/11 14:07:24;;;;;;;2.63;0.93;;;;;;;;;;4770953;30;20047;-79
2022/09/11 14:09:57;;;;;;;1.30;0.50;;;;;;;;;;4771119;30;20036;-83
2022/09/11 14:12:23;;;;;;;1.48;0.55;;;;;;;;;;4770793;30;20539;-79
2022/09/11 14:14:52;;;;;;;2.38;0.68;;;;;;;;;;4769437;30;20044;-76
2022/09/11 14:17:18;;;;;;;3.30;0.70;;;;;;;;;;4770054;30;20046;-72
2022/09/11 14:19:45;;;;;;;2.45;0.80;;;;;;;;;;4773309;30;20050;-71
2022/09/11 14:22:15;;;;;;;2.60;0.80;;;;;;;;;;4770937;30;20108;-70
2022/09/11 14:24:51;;;;;;;2.65;0.98;;;;;;;;;;4769804;30;20044;-70
2022/09/11 14:27:32;;;;;;;7.10;0.95;;;;;;;;;;4769870;30;20175;-71
2022/09/11 14:29:59;;;;;;;1.50;0.55;;;;;;;;;;4769780;30;20087;-71
2022/09/11 14:32:30;;;;;;;1.77;0.57;;;;;;;;;;4763331;30;20083;-74
2022/09/11 14:34:56;;;;;;;;;;;;;;;;;;4773711;30;20047;-74
2022/09/11 14:37:23;;;;;;;1.20;0.60;;;;;;;;;;4772191;30;19914;-74
2022/09/11 14:39:55;;;;;;;3.20;0.90;;;;;;;;;;4771890;30;20100;-74
2022/09/11 14:42:23;;;;;;;1.08;0.63;;;;;;;;;;4772855;30;20051;-71
2022/09/11 14:44:49;;;;;;;1.67;0.90;;;;;;;;;;4773038;30;20068;-72
2022/09/11 14:47:17;;;;;;;1.58;0.70;;;;;;;;;;4772940;30;20043;-74
2022/09/11 14:49:44;;;;;;;1.10;0.50;;;;;;;;;;4771295;30;20051;-72
2022/09/11 14:52:12;;;;;;;3.30;0.70;;;;;;;;;;4773456;30;20059;-74
2022/09/11 14:54:38;;;;;;;2.95;0.60;;;;;;;;;;4762642;30;20055;-73
2022/09/11 14:57:11;;;;;;;2.05;0.70;;;;;;;;;;4770048;30;20047;-77
2022/09/11 14:59:37;;;;;;;1.73;0.90;;;;;;;;;;4756294;30;20123;-73
2022/09/11 15:02:03;;;;;;;2.28;0.90;;;;;;;;;;4758195;30;20056;-73